createdAt,value
2022-12-17T00:00:24.476Z,60.80
2022-12-17T00:03:47.673Z,61.03
2022-12-17T00:07:07.973Z,60.95
2022-12-17T00:10:28.363Z,60.72
2022-12-17T00:13:48.851Z,60.73
2022-12-17T00:17:12.196Z,60.85
2022-12-17T00:20:32.719Z,61.29
2022-12-17T00:23:55.542Z,60.68
2022-12-17T00:27:16.458Z,60.48
2022-12-17T00:30:36.460Z,60.47
2022-12-17T00:33:56.448Z,60.61
2022-12-17T00:37:16.699Z,61.16
2022-12-17T00:40:36.726Z,60.53
2022-12-17T00:43:57.066Z,60.69
2022-12-17T00:47:17.231Z,60.97
2022-12-17T00:50:37.124Z,60.65
2022-12-17T00:53:58.883Z,60.58
2022-12-17T00:57:19.572Z,61.07
2022-12-17T01:00:50.797Z,60.66
2022-12-17T01:04:11.124Z,60.91
2022-12-17T01:07:30.995Z,60.97
2022-12-17T01:10:51.790Z,60.72
2022-12-17T01:14:12.733Z,60.55
2022-12-17T01:17:32.595Z,60.72
2022-12-17T01:20:52.422Z,60.78
2022-12-17T01:24:12.367Z,60.63
2022-12-17T01:27:32.831Z,60.97
2022-12-17T01:30:55.865Z,60.95
2022-12-17T01:34:15.869Z,60.85
2022-12-17T01:37:35.831Z,60.88
2022-12-17T01:40:55.595Z,60.67
2022-12-17T01:44:15.571Z,60.65
2022-12-17T01:47:36.689Z,60.95
2022-12-17T01:51:03.212Z,60.49
2022-12-17T01:54:24.134Z,60.68
2022-12-17T01:57:45.491Z,60.91
2022-12-17T02:01:05.757Z,60.70
2022-12-17T02:04:27.423Z,60.35
2022-12-17T02:08:00.454Z,60.77
2022-12-17T02:11:32.452Z,60.78
2022-12-17T02:15:01.571Z,60.76
2022-12-17T02:18:29.480Z,60.69
2022-12-17T02:21:52.391Z,60.48
2022-12-17T02:25:21.470Z,60.67
2022-12-17T02:28:42.904Z,60.91
2022-12-17T02:32:04.490Z,60.58
2022-12-17T02:35:32.311Z,61.05
2022-12-17T02:38:53.231Z,60.59
2022-12-17T02:42:17.723Z,60.99
2022-12-17T02:45:38.712Z,60.63
2022-12-17T02:48:59.563Z,60.90
2022-12-17T02:52:21.208Z,60.85
2022-12-17T02:55:41.054Z,60.96
2022-12-17T02:59:01.430Z,60.80
2022-12-17T03:02:21.869Z,60.56
2022-12-17T03:05:45.887Z,60.54
2022-12-17T03:09:06.353Z,60.45
2022-12-17T03:12:26.820Z,60.72
2022-12-17T03:15:57.520Z,60.57
2022-12-17T03:19:18.115Z,60.61
2022-12-17T03:22:38.018Z,60.50
2022-12-17T03:25:57.929Z,60.55
2022-12-17T03:29:17.792Z,60.92
2022-12-17T03:32:37.782Z,60.85
2022-12-17T03:35:58.183Z,61.20
2022-12-17T03:39:18.078Z,60.55
2022-12-17T03:42:38.108Z,61.06
2022-12-17T03:45:58.136Z,60.79
2022-12-17T03:49:18.246Z,60.85
2022-12-17T03:52:38.747Z,60.68
2022-12-17T03:55:59.300Z,60.86
2022-12-17T03:59:19.236Z,61.18
2022-12-17T04:02:39.346Z,61.11
2022-12-17T04:05:59.567Z,61.19
2022-12-17T04:09:19.928Z,61.12
2022-12-17T04:12:39.775Z,60.80
2022-12-17T04:16:00.361Z,60.90
2022-12-17T04:19:20.654Z,60.71
2022-12-17T04:22:44.994Z,60.92
2022-12-17T04:26:05.243Z,60.78
2022-12-17T04:29:25.151Z,61.09
2022-12-17T04:32:45.094Z,61.12
2022-12-17T04:36:04.981Z,60.98
2022-12-17T04:39:24.968Z,60.91
2022-12-17T04:42:44.798Z,61.28
2022-12-17T04:46:08.237Z,61.14
2022-12-17T04:49:28.456Z,61.14
2022-12-17T04:52:48.350Z,60.85
2022-12-17T04:56:08.785Z,61.19
2022-12-17T04:59:28.787Z,60.86
2022-12-17T05:02:48.966Z,60.97
2022-12-17T05:06:09.167Z,60.72
2022-12-17T05:09:28.880Z,61.08
2022-12-17T05:12:49.017Z,60.96
2022-12-17T05:16:14.557Z,61.13
2022-12-17T05:19:42.291Z,60.97
2022-12-17T05:23:02.404Z,60.91
2022-12-17T05:26:26.424Z,60.82
2022-12-17T05:29:46.851Z,60.57
2022-12-17T05:33:06.686Z,60.99
2022-12-17T05:36:27.194Z,61.05
2022-12-17T05:39:47.173Z,60.88
2022-12-17T05:43:15.558Z,61.13
2022-12-17T05:46:36.053Z,61.10
2022-12-17T05:49:56.431Z,60.98
2022-12-17T05:53:31.519Z,60.75
2022-12-17T05:56:51.366Z,60.99
2022-12-17T06:00:11.315Z,60.87
2022-12-17T06:03:31.488Z,60.88
2022-12-17T06:06:52.303Z,60.82
2022-12-17T06:10:12.254Z,60.79
2022-12-17T06:13:32.228Z,60.83
2022-12-17T06:16:52.507Z,60.99
2022-12-17T06:20:12.585Z,60.94
2022-12-17T06:23:32.647Z,60.75
2022-12-17T06:26:52.850Z,60.87
2022-12-17T06:30:18.434Z,60.78
2022-12-17T06:33:39.313Z,60.88
2022-12-17T06:36:59.398Z,60.72
2022-12-17T06:40:19.334Z,61.01
2022-12-17T06:43:39.529Z,60.56
2022-12-17T06:46:59.645Z,60.62
2022-12-17T06:50:19.809Z,60.31
2022-12-17T06:53:39.668Z,60.37
2022-12-17T06:56:59.827Z,60.37
2022-12-17T07:00:19.727Z,60.58
2022-12-17T07:03:39.777Z,61.39
2022-12-17T07:06:59.876Z,61.09
2022-12-17T07:10:20.125Z,60.67
2022-12-17T07:13:40.240Z,60.63
2022-12-17T07:17:00.362Z,60.57
2022-12-17T07:20:21.037Z,60.53
2022-12-17T07:23:41.023Z,60.90
2022-12-17T07:27:00.890Z,60.71
2022-12-17T07:30:21.210Z,60.63
2022-12-17T07:33:41.260Z,60.64
2022-12-17T07:37:01.290Z,60.41
2022-12-17T07:40:22.199Z,60.71
2022-12-17T07:43:42.023Z,60.80
2022-12-17T07:47:01.921Z,60.96
2022-12-17T07:50:22.313Z,60.92
2022-12-17T07:53:42.628Z,60.76
2022-12-17T07:57:02.700Z,61.03
2022-12-17T08:00:23.666Z,60.78
2022-12-17T08:03:43.448Z,60.88
2022-12-17T08:07:08.817Z,61.00
2022-12-17T08:10:31.335Z,60.96
2022-12-17T08:13:51.282Z,61.03
2022-12-17T08:17:11.295Z,60.88
2022-12-17T08:20:31.302Z,61.12
2022-12-17T08:23:51.549Z,60.98
2022-12-17T08:27:11.619Z,61.17
2022-12-17T08:30:32.009Z,61.07
2022-12-17T08:33:52.226Z,61.19
2022-12-17T08:37:12.510Z,61.22
2022-12-17T08:40:36.875Z,61.02
2022-12-17T08:43:57.110Z,62.20
2022-12-17T08:47:16.938Z,61.79
2022-12-17T08:50:36.780Z,61.09
2022-12-17T08:53:56.876Z,61.39
2022-12-17T08:57:30.581Z,61.06
2022-12-17T09:00:51.841Z,61.44
2022-12-17T09:04:12.821Z,61.09
2022-12-17T09:07:32.840Z,60.99
2022-12-17T09:10:52.597Z,61.26
2022-12-17T09:14:12.483Z,61.39
2022-12-17T09:17:32.411Z,61.50
2022-12-17T09:20:52.282Z,61.59
2022-12-17T09:24:12.187Z,61.36
2022-12-17T09:27:32.384Z,61.13
2022-12-17T09:30:52.417Z,61.44
2022-12-17T09:34:12.606Z,61.35
2022-12-17T09:37:32.443Z,60.97
2022-12-17T09:40:54.850Z,61.74
2022-12-17T09:44:45.968Z,61.14
2022-12-17T09:48:32.228Z,61.26
2022-12-17T09:51:54.012Z,61.34
2022-12-17T09:55:13.995Z,61.67
2022-12-17T09:58:40.523Z,61.30
2022-12-17T10:02:01.138Z,61.47
2022-12-17T10:05:24.419Z,61.21
2022-12-17T10:08:46.122Z,61.29
2022-12-17T10:12:06.410Z,61.42
2022-12-17T10:15:31.895Z,61.54
2022-12-17T10:18:52.117Z,61.29
2022-12-17T10:22:12.618Z,61.00
2022-12-17T10:25:35.691Z,61.12
2022-12-17T10:28:55.785Z,61.23
2022-12-17T10:32:36.450Z,61.58
2022-12-17T10:35:56.626Z,61.42
2022-12-17T10:39:17.121Z,61.46
2022-12-17T10:42:49.976Z,61.30
2022-12-17T10:46:15.285Z,61.59
2022-12-17T10:49:38.427Z,60.93
2022-12-17T10:52:58.386Z,61.43
2022-12-17T10:56:18.741Z,61.49
2022-12-17T10:59:50.324Z,61.62
2022-12-17T11:03:10.808Z,61.01
2022-12-17T11:09:52.993Z,61.25
2022-12-17T11:13:22.335Z,61.38
2022-12-17T11:16:50.947Z,61.44
2022-12-17T11:20:18.843Z,61.13
2022-12-17T11:23:39.845Z,61.56
2022-12-17T11:27:03.781Z,61.03
2022-12-17T11:30:34.905Z,61.30
2022-12-17T11:34:11.394Z,61.63
2022-12-17T11:37:40.398Z,61.30
2022-12-17T11:41:04.449Z,61.63
2022-12-17T11:44:43.414Z,61.18
2022-12-17T11:48:03.401Z,61.52
2022-12-17T11:51:58.243Z,61.31
2022-12-17T11:55:27.212Z,61.16
2022-12-17T11:59:16.530Z,61.62
2022-12-17T12:02:55.897Z,61.65
2022-12-17T12:06:21.963Z,61.33
2022-12-17T12:10:07.095Z,61.24
2022-12-17T12:13:39.279Z,61.54
2022-12-17T12:17:21.848Z,61.68
2022-12-17T12:20:47.911Z,61.67
2022-12-17T12:24:39.450Z,61.64
2022-12-17T12:28:22.727Z,62.00
2022-12-17T12:32:00.848Z,61.45
2022-12-17T12:35:23.099Z,61.82
2022-12-17T12:38:59.066Z,61.45
2022-12-17T12:42:27.797Z,61.99
2022-12-17T12:46:11.469Z,61.91
2022-12-17T12:49:41.164Z,61.39
2022-12-17T12:53:01.465Z,61.21
2022-12-17T12:56:31.880Z,61.28
2022-12-17T12:59:53.631Z,61.19
2022-12-17T13:03:13.557Z,61.17
2022-12-17T13:06:37.599Z,61.95
2022-12-17T13:09:49.258Z,61.57
2022-12-17T13:12:51.548Z,61.69
2022-12-17T13:16:02.004Z,61.67
2022-12-17T13:19:18.419Z,61.15
2022-12-17T13:22:23.960Z,61.50
2022-12-17T13:25:25.795Z,61.97
2022-12-17T13:28:30.783Z,61.48
2022-12-17T13:32:07.122Z,61.59
2022-12-17T13:35:30.500Z,61.49
2022-12-17T13:38:44.133Z,61.57
2022-12-17T13:41:45.791Z,61.77
2022-12-17T13:44:47.951Z,61.88
2022-12-17T13:47:58.039Z,61.73
2022-12-17T13:51:02.519Z,61.73
2022-12-17T13:54:05.001Z,61.60
2022-12-17T13:57:13.704Z,61.71
2022-12-17T14:00:25.121Z,61.23
2022-12-17T14:03:49.989Z,61.79
2022-12-17T14:06:48.639Z,61.29
2022-12-17T14:09:50.940Z,61.65
2022-12-17T14:13:10.636Z,61.67
2022-12-17T14:16:20.325Z,61.48
2022-12-17T14:19:24.356Z,61.25
2022-12-17T14:22:57.068Z,61.94
2022-12-17T14:25:59.380Z,61.54
2022-12-17T14:29:00.941Z,61.83
2022-12-17T14:32:21.404Z,61.80
2022-12-17T14:35:36.255Z,61.07
2022-12-17T14:38:39.133Z,61.72
2022-12-17T14:41:59.939Z,61.32
2022-12-17T14:45:21.325Z,61.65
2022-12-17T14:48:45.687Z,61.81
2022-12-17T14:51:48.512Z,61.46
2022-12-17T14:54:50.344Z,61.46
2022-12-17T14:57:53.303Z,61.37
2022-12-17T15:01:13.286Z,61.57
2022-12-17T15:04:16.858Z,61.64
2022-12-17T15:07:24.700Z,61.79
2022-12-17T15:10:26.247Z,61.68
2022-12-17T15:13:27.943Z,61.81
2022-12-17T15:16:29.781Z,61.58
2022-12-17T15:19:31.475Z,61.35
2022-12-17T15:22:33.023Z,61.29
2022-12-17T15:25:38.763Z,61.94
2022-12-17T15:28:44.302Z,61.83
2022-12-17T15:31:45.912Z,61.45
2022-12-17T15:34:48.060Z,61.37
2022-12-17T15:37:49.603Z,60.98
2022-12-17T15:40:55.186Z,61.27
2022-12-17T15:43:56.731Z,61.76
2022-12-17T15:46:58.252Z,61.89
2022-12-17T15:50:00.607Z,61.83
2022-12-17T15:53:02.264Z,61.57
2022-12-17T15:56:04.897Z,61.47
2022-12-17T15:59:06.784Z,61.31
2022-12-17T16:02:10.841Z,61.55
2022-12-17T16:05:12.646Z,61.15
2022-12-17T16:08:14.226Z,61.07
2022-12-17T16:11:16.193Z,61.40
2022-12-17T16:14:17.738Z,61.42
2022-12-17T16:17:19.302Z,61.49
2022-12-17T16:20:20.790Z,61.14
2022-12-17T16:23:22.347Z,61.35
2022-12-17T16:26:23.891Z,61.42
2022-12-17T16:29:25.425Z,61.39
2022-12-17T16:32:30.309Z,61.24
2022-12-17T16:35:34.536Z,61.47
2022-12-17T16:38:36.727Z,62.12
2022-12-17T16:41:38.576Z,62.01
2022-12-17T16:44:40.146Z,61.62
2022-12-17T16:47:41.791Z,61.90
2022-12-17T16:50:44.504Z,61.60
2022-12-17T16:53:46.267Z,61.86
2022-12-17T16:56:48.865Z,61.18
2022-12-17T16:59:50.717Z,61.48
2022-12-17T17:02:53.598Z,61.96
2022-12-17T17:06:00.400Z,62.01
2022-12-17T17:09:05.650Z,62.14
2022-12-17T17:12:08.941Z,61.79
2022-12-17T17:15:10.783Z,61.98
2022-12-17T17:18:12.310Z,61.73
2022-12-17T17:21:25.750Z,61.43
2022-12-17T17:24:27.362Z,62.09
2022-12-17T17:27:28.900Z,61.56
2022-12-17T17:30:30.463Z,61.46
2022-12-17T17:33:34.925Z,61.24
2022-12-17T17:36:37.009Z,61.33
2022-12-17T17:39:38.592Z,61.56
2022-12-17T17:42:40.102Z,61.60
2022-12-17T17:45:43.263Z,61.72
2022-12-17T17:48:46.639Z,61.71
2022-12-17T17:55:09.811Z,61.42
2022-12-17T17:58:11.367Z,61.42
2022-12-17T18:01:22.272Z,61.04
2022-12-17T18:04:24.365Z,61.43
2022-12-17T18:07:26.971Z,61.34
2022-12-17T18:10:29.236Z,61.38
2022-12-17T18:13:59.951Z,61.62
2022-12-17T18:17:01.454Z,61.01
2022-12-17T18:20:03.419Z,61.54
2022-12-17T18:23:04.935Z,61.42
2022-12-17T18:26:12.772Z,61.58
2022-12-17T18:29:20.245Z,61.26
2022-12-17T18:32:21.785Z,61.41
2022-12-17T18:35:23.968Z,61.65
2022-12-17T18:38:26.149Z,61.26
2022-12-17T18:41:46.619Z,61.55
2022-12-17T18:44:48.159Z,61.43
2022-12-17T18:47:51.006Z,61.39
2022-12-17T18:50:52.523Z,61.06
2022-12-17T18:53:58.391Z,61.15
2022-12-17T18:57:01.643Z,61.22
2022-12-17T19:00:04.503Z,61.52
2022-12-17T19:03:06.685Z,61.21
2022-12-17T19:06:08.502Z,61.13
2022-12-17T19:09:20.525Z,61.71
2022-12-17T19:12:22.487Z,61.25
2022-12-17T19:15:24.023Z,61.62
2022-12-17T19:18:25.615Z,61.57
2022-12-17T19:21:27.239Z,61.49
2022-12-17T19:24:29.175Z,60.93
2022-12-17T19:27:30.719Z,61.28
2022-12-17T19:30:32.325Z,61.39
2022-12-17T19:33:33.936Z,61.25
2022-12-17T19:36:36.455Z,60.75
2022-12-17T19:39:37.959Z,61.00
2022-12-17T19:42:39.938Z,61.21
2022-12-17T19:45:42.206Z,61.36
2022-12-17T19:48:48.720Z,60.94
2022-12-17T19:51:51.735Z,60.96
2022-12-17T19:54:53.991Z,61.22
2022-12-17T19:57:56.575Z,60.97
2022-12-17T20:01:06.036Z,61.22
2022-12-17T20:04:07.833Z,61.25
2022-12-17T20:07:09.387Z,60.57
2022-12-17T20:10:11.091Z,60.76
2022-12-17T20:13:12.641Z,60.94
2022-12-17T20:16:14.260Z,61.12
2022-12-17T20:19:23.752Z,61.15
2022-12-17T20:22:25.383Z,61.08
2022-12-17T20:25:26.925Z,60.92
2022-12-17T20:28:28.428Z,61.11
2022-12-17T20:31:31.414Z,60.77
2022-12-17T20:34:33.195Z,61.04
2022-12-17T20:37:34.772Z,60.78
2022-12-17T20:40:40.383Z,60.94
2022-12-17T20:43:42.562Z,60.80
2022-12-17T20:46:44.153Z,60.44
2022-12-17T20:49:45.707Z,60.47
2022-12-17T20:52:47.252Z,60.78
2022-12-17T20:55:59.764Z,61.01
2022-12-17T20:59:05.311Z,60.77
2022-12-17T21:02:06.986Z,60.98
2022-12-17T21:05:08.825Z,60.80
2022-12-17T21:08:10.347Z,61.00
2022-12-17T21:11:11.887Z,60.79
2022-12-17T21:14:16.711Z,61.08
2022-12-17T21:17:18.320Z,60.94
2022-12-17T21:20:20.162Z,61.04
2022-12-17T21:23:22.181Z,60.66
2022-12-17T21:26:29.255Z,61.17
2022-12-17T21:29:30.796Z,60.98
2022-12-17T21:32:34.053Z,60.58
2022-12-17T21:35:35.833Z,60.91
2022-12-17T21:38:38.010Z,60.82
2022-12-17T21:41:44.974Z,61.21
2022-12-17T21:44:46.670Z,60.73
2022-12-17T21:47:48.380Z,61.13
2022-12-17T21:50:50.083Z,61.03
2022-12-17T21:53:57.915Z,60.90
2022-12-17T21:56:59.516Z,61.37
2022-12-17T22:00:01.074Z,60.96
2022-12-17T22:03:02.696Z,61.18
2022-12-17T22:06:13.636Z,60.99
2022-12-17T22:09:34.480Z,60.94
2022-12-17T22:12:55.732Z,61.07
2022-12-17T22:15:57.329Z,60.67
2022-12-17T22:19:01.606Z,60.98
2022-12-17T22:22:03.363Z,60.79
2022-12-17T22:25:08.505Z,60.86
2022-12-17T22:28:11.130Z,60.85
2022-12-17T22:31:31.602Z,60.88
2022-12-17T22:36:04.978Z,60.79
2022-12-17T22:41:04.644Z,61.04
2022-12-17T22:44:37.108Z,61.06
2022-12-17T22:45:04.082Z,61.12
2022-12-17T22:48:11.267Z,60.68
2022-12-17T22:51:20.648Z,60.71
2022-12-17T22:54:32.714Z,60.83
2022-12-17T22:57:38.212Z,61.22
2022-12-17T23:00:40.277Z,61.71
2022-12-17T23:03:42.357Z,61.12
2022-12-17T23:06:45.798Z,60.81
2022-12-17T23:09:47.360Z,61.28
2022-12-17T23:12:52.430Z,61.09
2022-12-17T23:15:53.996Z,61.07
2022-12-17T23:18:55.762Z,60.94
2022-12-17T23:21:57.484Z,60.80
2022-12-17T23:24:59.049Z,60.44
2022-12-17T23:28:00.593Z,60.71
2022-12-17T23:31:11.392Z,60.94
2022-12-17T23:34:13.080Z,60.90
2022-12-17T23:37:14.633Z,61.08
2022-12-17T23:40:16.203Z,61.11
2022-12-17T23:43:18.055Z,61.20
2022-12-17T23:46:20.799Z,61.13
2022-12-17T23:49:22.342Z,61.14
2022-12-17T23:52:23.897Z,61.19
2022-12-17T23:55:25.469Z,61.15
2022-12-17T23:58:26.968Z,61.02
